Time;durP1;ratioP1;P1;durP2;ratioP2;P2;SDS_P1;SDS_P2;PMS_P1;PMS_P2;Temp;Humidity;BMP_temperature;BMP_pressure;BME280_temperature;BME280_humidity;BME280_pressure;Samples;Min_cycle;Max_cycle;Signal;HPM_P1;HPM_P2
2021/04/15 00:00:09;;;;;;;10.85;7.55;;;;;;;24.74;18.13;96566.47;6204124;23;20063;-56
2021/04/15 00:02:34;;;;;;;9.93;7.53;;;;;;;24.74;18.23;96569.22;6204215;23;20463;-55
2021/04/15 00:05:00;;;;;;;11.40;7.75;;;;;;;24.70;18.28;96554.50;6204132;23;20243;-55
2021/04/15 00:07:26;;;;;;;9.50;7.07;;;;;;;24.66;17.93;96554.34;6203962;23;20086;-55
2021/04/15 00:09:51;;;;;;;9.02;6.90;;;;;;;24.64;18.27;96560.13;6203828;23;20447;-56
2021/04/15 00:12:17;;;;;;;9.38;6.65;;;;;;;24.60;17.93;96561.84;6204374;23;20004;-54
2021/04/15 00:14:42;;;;;;;9.38;6.65;;;;;;;24.58;18.23;96555.06;6204025;23;20059;-54
2021/04/15 00:17:08;;;;;;;8.95;6.55;;;;;;;24.56;18.39;96557.28;6205538;23;20009;-54
2021/04/15 00:19:33;;;;;;;9.23;6.45;;;;;;;24.53;17.98;96557.88;6204849;23;20075;-55
2021/04/15 00:21:59;;;;;;;8.02;6.10;;;;;;;24.50;17.94;96558.50;6204367;23;20527;-54
2021/04/15 00:24:24;;;;;;;8.05;6.00;;;;;;;24.46;17.88;96558.25;6204530;23;20012;-55
2021/04/15 00:26:50;;;;;;;7.10;5.57;;;;;;;24.44;18.27;96558.56;6203893;23;20088;-56
2021/04/15 00:29:16;;;;;;;9.05;6.47;;;;;;;24.40;18.06;96551.25;6204508;23;20019;-54
2021/04/15 00:31:41;;;;;;;8.43;6.05;;;;;;;24.38;18.36;96546.09;6205146;23;20048;-55
2021/04/15 00:34:07;;;;;;;8.10;6.45;;;;;;;24.34;18.11;96545.06;6205581;23;20019;-56
2021/04/15 00:36:33;;;;;;;8.38;5.57;;;;;;;24.31;17.94;96547.63;6203544;23;20082;-55
2021/04/15 00:38:58;;;;;;;6.63;5.43;;;;;;;24.27;18.07;96542.75;6204887;23;20032;-55
2021/04/15 00:41:24;;;;;;;7.53;5.60;;;;;;;24.24;18.24;96540.63;6204064;23;20059;-54
2021/04/15 00:43:50;;;;;;;6.60;5.53;;;;;;;24.22;18.35;96542.84;6204735;23;20012;-56
2021/04/15 00:46:39;;;;;;;7.47;5.30;;;;;;;24.16;18.22;96532.28;6202764;23;20048;-55
2021/04/15 00:49:04;;;;;;;6.65;5.05;;;;;;;24.13;18.35;96530.97;6202524;23;20503;-55
2021/04/15 00:51:33;;;;;;;7.25;5.18;;;;;;;24.09;18.11;96532.69;6204127;23;20013;-56
2021/04/15 00:54:11;;;;;;;7.10;5.03;;;;;;;24.04;18.28;96525.41;6204363;23;20012;-54
2021/04/15 00:56:37;;;;;;;6.25;4.68;;;;;;;24.02;18.18;96524.91;6205535;23;20051;-54
2021/04/15 00:59:03;;;;;;;5.22;4.72;;;;;;;23.99;18.49;96521.94;6177171;23;20016;-55
2021/04/15 01:01:29;;;;;;;5.82;5.22;;;;;;;23.95;18.70;96524.50;6177437;23;20079;-56
2021/04/15 01:03:54;;;;;;;5.45;4.47;;;;;;;23.94;18.37;96524.78;6177604;23;20054;-56
2021/04/15 01:06:20;;;;;;;5.68;4.70;;;;;;;23.90;18.35;96524.56;6204197;23;20040;-55
2021/04/15 01:08:46;;;;;;;5.57;4.63;;;;;;;23.87;18.31;96527.94;6204532;23;20091;-55
2021/04/15 01:11:40;;;;;;;5.20;4.10;;;;;;;23.83;18.70;96524.16;6203816;23;20322;-54
2021/04/15 01:14:31;;;;;;;6.13;4.30;;;;;;;23.78;18.34;96527.81;6202260;23;20013;-55
2021/04/15 01:17:00;;;;;;;4.38;3.67;;;;;;;23.74;18.32;96528.66;6202418;23;20021;-55
2021/04/15 01:19:45;;;;;;;6.10;3.85;;;;;;;23.69;18.44;96526.84;6178742;23;20028;-54
2021/04/15 01:22:48;;;;;;;5.15;3.92;;;;;;;23.65;18.55;96534.00;6182336;23;20070;-54
2021/04/15 01:25:23;;;;;;;4.10;3.35;;;;;;;23.63;18.52;96530.75;6205317;23;20013;-55
2021/04/15 01:27:50;;;;;;;4.57;3.70;;;;;;;23.58;18.52;96531.66;6205384;23;20125;-55
2021/04/15 01:30:26;;;;;;;3.95;3.55;;;;;;;23.54;18.41;96524.38;6178443;23;20020;-54
2021/04/15 01:33:09;;;;;;;4.82;3.65;;;;;;;23.49;18.34;96536.22;6203933;23;20016;-54
2021/04/15 01:35:49;;;;;;;4.43;3.47;;;;;;;23.45;18.63;96530.53;6205782;23;20039;-55
2021/04/15 01:38:30;;;;;;;3.78;3.25;;;;;;;23.42;18.46;96527.56;6204660;23;20039;-54
2021/04/15 01:40:59;;;;;;;4.43;3.22;;;;;;;23.38;18.60;96530.06;6204361;23;20511;-54
2021/04/15 01:43:37;;;;;;;3.97;2.92;;;;;;;23.34;18.71;96536.44;6179560;23;20464;-54
2021/04/15 01:46:03;;;;;;;3.05;2.75;;;;;;;23.30;18.58;96540.88;6204197;23;20017;-54
2021/04/15 01:48:34;;;;;;;4.05;3.58;;;;;;;23.24;18.75;96540.97;6204175;23;20059;-54
2021/04/15 01:51:03;;;;;;;3.30;2.80;;;;;;;23.21;18.80;96540.75;6205648;23;20036;-54
2021/04/15 01:53:42;;;;;;;3.03;2.67;;;;;;;23.18;18.50;96546.81;6204043;23;20021;-54
2021/04/15 01:56:11;;;;;;;3.67;2.83;;;;;;;23.14;18.51;96549.31;6182156;23;20013;-54
2021/04/15 01:58:40;;;;;;;2.85;2.53;;;;;;;23.12;18.79;96548.00;6205641;23;20043;-56
2021/04/15 02:01:08;;;;;;;3.05;2.75;;;;;;;23.06;18.66;96547.25;6203700;23;20013;-56
2021/04/15 02:03:35;;;;;;;3.03;2.67;;;;;;;23.01;18.71;96542.69;6179192;23;20017;-55
2021/04/15 02:06:14;;;;;;;3.05;2.72;;;;;;;22.96;18.75;96530.97;6203990;23;20087;-54
2021/04/15 02:08:41;;;;;;;3.65;2.50;;;;;;;22.94;18.69;96530.47;6180430;23;20048;-54
2021/04/15 02:11:09;;;;;;;3.05;2.28;;;;;;;22.89;18.95;96528.63;6204900;23;20017;-54
2021/04/15 02:13:37;;;;;;;2.30;2.10;;;;;;;22.85;18.81;96528.41;6178986;23;20046;-54
2021/04/15 02:16:07;;;;;;;2.70;2.50;;;;;;;22.81;18.67;96523.81;6205746;23;20016;-55
2021/04/15 02:18:35;;;;;;;2.40;2.20;;;;;;;22.77;18.85;96522.78;6179153;23;20016;-54
2021/04/15 02:21:11;;;;;;;2.67;2.20;;;;;;;22.72;18.98;96517.41;6179270;23;20084;-55
2021/04/15 02:23:39;;;;;;;2.53;2.25;;;;;;;22.69;19.06;96526.16;6180121;23;20020;-56
2021/04/15 02:26:13;;;;;;;2.92;2.50;;;;;;;22.64;18.80;96522.41;6178743;23;20464;-54
2021/04/15 02:28:53;;;;;;;2.40;1.83;;;;;;;22.59;18.95;96522.50;6204391;23;20432;-54
2021/04/15 02:31:20;;;;;;;2.47;1.98;;;;;;;22.55;18.85;96523.38;6154695;23;20711;-54
2021/04/15 02:33:50;;;;;;;1.88;1.67;;;;;;;22.51;18.90;96525.06;6178441;23;20042;-54
2021/04/15 02:36:16;;;;;;;2.80;2.42;;;;;;;22.45;19.41;96524.31;6204009;23;20012;-55
2021/04/15 02:38:56;;;;;;;2.15;1.92;;;;;;;22.41;18.95;96531.44;6179732;23;20012;-56
2021/04/15 02:41:25;;;;;;;2.00;1.80;;;;;;;22.35;19.15;96522.50;6178886;23;20393;-55
2021/04/15 02:44:06;;;;;;;3.97;1.85;;;;;;;22.31;19.12;96518.72;6178575;23;20067;-55
2021/04/15 02:46:34;;;;;;;2.67;2.00;;;;;;;22.26;19.21;96516.88;6203159;23;20201;-54
2021/04/15 02:49:04;;;;;;;5.82;1.90;;;;;;;22.20;19.11;96515.28;6201269;23;20051;-54
2021/04/15 02:51:31;;;;;;;3.47;2.20;;;;;;;22.17;19.35;96523.22;6178086;23;20039;-54
2021/04/15 02:54:32;;;;;;;2.80;1.95;;;;;;;22.14;19.39;96519.19;6202830;23;20135;-54
2021/04/15 02:57:12;;;;;;;2.50;1.70;;;;;;;22.09;19.35;96524.69;6190899;23;20020;-55
2021/04/15 02:59:53;;;;;;;3.00;2.10;;;;;;;22.06;19.27;96522.53;6205512;23;20020;-56
2021/04/15 03:02:25;;;;;;;2.88;1.73;;;;;;;22.00;19.39;96524.53;6178851;23;20059;-55
2021/04/15 03:04:52;;;;;;;1.92;1.65;;;;;;;22.03;19.21;96525.88;6203450;23;20016;-55
2021/04/15 03:07:19;;;;;;;2.50;2.05;;;;;;;22.00;19.32;96523.69;6203847;23;20008;-54
2021/04/15 03:09:45;;;;;;;2.38;1.48;;;;;;;21.96;19.42;96520.75;6178634;23;20023;-55
2021/04/15 03:12:26;;;;;;;2.42;1.90;;;;;;;21.92;19.32;96522.44;6180094;23;20012;-56
2021/04/15 03:15:15;;;;;;;2.10;1.90;;;;;;;21.89;19.35;96519.47;6204585;23;20012;-55
2021/04/15 03:17:45;;;;;;;1.90;1.70;;;;;;;21.89;19.30;96512.09;6202986;23;20012;-55
2021/04/15 03:20:42;;;;;;;2.05;1.67;;;;;;;21.86;19.29;96515.41;6204067;23;20040;-56
2021/04/15 03:23:30;;;;;;;2.35;1.80;;;;;;;21.85;19.40;96511.84;6195345;23;20099;-55
2021/04/15 03:25:57;;;;;;;1.50;1.40;;;;;;;21.86;19.24;96515.41;6204310;23;20099;-55
2021/04/15 03:28:39;;;;;;;1.60;1.50;;;;;;;21.86;19.28;96515.41;6203325;23;20063;-55
2021/04/15 03:31:09;;;;;;;1.70;1.60;;;;;;;21.85;19.32;96506.41;6180647;23;20011;-56
2021/04/15 03:33:59;;;;;;;1.60;1.50;;;;;;;21.86;19.31;96502.56;6178207;23;20020;-55
2021/04/15 03:36:32;;;;;;;1.80;1.30;;;;;;;21.87;19.33;96503.38;6202662;23;20483;-56
2021/04/15 03:39:02;;;;;;;2.00;1.30;;;;;;;21.89;19.21;96500.38;6154479;23;20024;-55
2021/04/15 03:41:36;;;;;;;1.30;1.20;;;;;;;21.90;19.17;96507.44;6202031;23;20005;-55
2021/04/15 03:44:06;;;;;;;1.48;1.38;;;;;;;21.93;19.28;96496.78;6202913;23;20428;-55
2021/04/15 03:46:43;;;;;;;1.00;1.00;;;;;;;21.95;19.39;96504.69;6178119;23;20083;-55
2021/04/15 03:49:09;;;;;;;1.92;1.83;;;;;;;21.98;19.12;96498.63;6179113;23;20017;-55
2021/04/15 03:51:43;;;;;;;1.40;1.27;;;;;;;22.01;19.22;96498.06;6203993;23;20532;-55
2021/04/15 03:54:16;;;;;;;2.10;1.50;;;;;;;22.03;19.16;96493.13;6203271;23;20018;-55
2021/04/15 03:56:48;;;;;;;1.73;1.58;;;;;;;22.08;19.03;96495.78;6203591;23;20024;-55
2021/04/15 03:59:32;;;;;;;1.42;1.33;;;;;;;22.12;18.97;96491.38;6205357;23;20731;-56
2021/04/15 04:02:00;;;;;;;1.30;1.30;;;;;;;22.15;18.93;96490.81;6202894;23;20077;-56
2021/04/15 04:04:48;;;;;;;1.35;1.20;;;;;;;22.18;18.94;96492.13;6202700;23;20014;-55
2021/04/15 04:07:26;;;;;;;1.05;0.90;;;;;;;22.22;18.95;96490.44;6202882;23;20398;-56
2021/04/15 04:09:57;;;;;;;1.48;1.23;;;;;;;22.28;18.64;96489.31;6202670;23;20022;-56
2021/04/15 04:12:35;;;;;;;1.05;1.05;;;;;;;22.32;18.83;96484.06;6177036;23;20016;-55
2021/04/15 04:15:28;;;;;;;1.23;1.10;;;;;;;22.36;18.91;96487.84;6204211;23;20012;-55
2021/04/15 04:18:02;;;;;;;1.20;1.10;;;;;;;22.42;18.74;96492.97;6181216;23;20012;-55
2021/04/15 04:20:29;;;;;;;0.85;0.85;;;;;;;22.47;18.63;96489.34;6203848;23;20440;-55
2021/04/15 04:23:28;;;;;;;1.00;1.00;;;;;;;22.51;18.70;96495.84;6177225;23;20047;-55
2021/04/15 04:26:02;;;;;;;1.00;1.00;;;;;;;22.56;18.65;96486.75;6203731;23;20187;-55
2021/04/15 04:28:31;;;;;;;1.05;0.98;;;;;;;22.62;18.60;96491.84;6177618;23;20377;-55
2021/04/15 04:31:08;;;;;;;1.38;1.27;;;;;;;22.65;18.41;96483.09;6177971;23;20008;-55
2021/04/15 04:33:41;;;;;;;1.80;1.02;;;;;;;22.72;18.52;96493.63;6202497;23;20433;-54
2021/04/15 04:36:07;;;;;;;1.10;1.02;;;;;;;22.76;18.50;96486.47;6202989;23;20508;-54
2021/04/15 04:38:33;;;;;;;1.33;1.15;;;;;;;22.80;18.43;96492.16;6177943;23;20016;-55
2021/04/15 04:41:00;;;;;;;1.10;1.02;;;;;;;22.86;18.38;96501.88;6203014;23;20325;-55
2021/04/15 04:43:31;;;;;;;0.90;0.90;;;;;;;22.92;18.13;96499.91;6202501;23;20464;-55
2021/04/15 04:46:00;;;;;;;1.20;1.10;;;;;;;22.96;18.10;96500.94;6177134;23;20023;-55
2021/04/15 04:48:31;;;;;;;0.85;0.80;;;;;;;23.00;18.25;96502.78;6202611;23;20009;-55
2021/04/15 04:51:03;;;;;;;1.00;1.00;;;;;;;23.03;17.93;96504.97;6202458;23;20012;-54
2021/04/15 04:53:35;;;;;;;0.90;0.90;;;;;;;23.10;17.89;96506.50;6202146;23;20027;-55
2021/04/15 04:56:27;;;;;;;0.95;0.95;;;;;;;23.14;18.13;96513.81;6180576;23;20031;-54
2021/04/15 04:58:55;;;;;;;1.73;1.63;;;;;;;23.19;17.91;96513.72;6204074;23;20356;-56
2021/04/15 05:01:20;;;;;;;1.88;1.40;;;;;;;23.23;18.00;96512.00;6181103;23;20023;-56
2021/04/15 05:03:46;;;;;;;1.58;1.48;;;;;;;23.28;17.65;96513.88;6205573;23;20020;-55
2021/04/15 05:06:23;;;;;;;1.63;1.52;;;;;;;23.31;18.11;96507.00;6206357;23;20044;-56
2021/04/15 05:08:52;;;;;;;1.63;1.52;;;;;;;23.36;17.82;96509.63;6179167;23;20635;-56
2021/04/15 05:11:18;;;;;;;1.70;1.60;;;;;;;23.40;17.96;96516.91;6204154;23;20066;-55
2021/04/15 05:13:44;;;;;;;1.52;1.40;;;;;;;23.43;17.57;96516.34;6204551;23;20420;-55
2021/04/15 05:16:09;;;;;;;1.48;1.38;;;;;;;23.48;17.49;96516.25;6204677;23;20036;-54
2021/04/15 05:18:35;;;;;;;1.33;1.30;;;;;;;23.51;17.76;96520.31;6204958;23;20016;-55
2021/04/15 05:21:22;;;;;;;1.10;1.10;;;;;;;23.54;17.64;96521.63;6205107;23;20008;-54
2021/04/15 05:23:51;;;;;;;1.48;1.45;;;;;;;23.57;17.54;96523.75;6179533;23;20534;-55
2021/04/15 05:26:24;;;;;;;1.40;1.33;;;;;;;23.58;17.64;96528.94;6204723;23;20024;-55
2021/04/15 05:28:51;;;;;;;1.30;1.30;;;;;;;23.61;17.46;96531.09;6179223;23;20087;-55
2021/04/15 05:31:18;;;;;;;1.13;1.10;;;;;;;23.64;17.31;96537.88;6178663;23;20016;-56
2021/04/15 05:33:44;;;;;;;1.50;1.40;;;;;;;23.62;17.21;96529.97;6206412;23;20027;-56
2021/04/15 05:36:25;;;;;;;1.35;1.25;;;;;;;23.65;17.47;96536.75;6206455;23;20013;-55
2021/04/15 05:38:52;;;;;;;1.42;1.33;;;;;;;23.67;17.17;96540.00;6204159;23;20040;-54
2021/04/15 05:41:29;;;;;;;1.58;1.48;;;;;;;23.67;17.19;96542.72;6203388;23;20012;-55
2021/04/15 05:44:02;;;;;;;2.38;2.03;;;;;;;23.68;17.26;96544.38;6179903;23;20031;-56
2021/04/15 05:46:38;;;;;;;2.25;2.05;;;;;;;23.67;17.35;96540.81;6204256;23;20170;-56
2021/04/15 05:49:04;;;;;;;2.60;2.40;;;;;;;23.70;17.45;96550.34;6204113;23;20047;-54
2021/04/15 05:51:34;;;;;;;2.83;2.28;;;;;;;23.69;17.24;96545.97;6178812;23;20035;-55
2021/04/15 05:54:04;;;;;;;2.47;2.38;;;;;;;23.68;17.40;96549.84;6179849;23;20044;-55
2021/04/15 05:56:34;;;;;;;3.00;2.80;;;;;;;23.67;17.20;96543.53;6202778;23;20012;-56
2021/04/15 05:59:07;;;;;;;2.53;2.28;;;;;;;23.65;17.09;96545.75;6178523;23;20091;-57
2021/04/15 06:01:52;;;;;;;2.45;2.35;;;;;;;23.65;17.32;96553.16;6228742;23;20070;-57
2021/04/15 06:04:21;;;;;;;3.08;2.45;;;;;;;23.63;17.31;96552.66;6172440;23;20099;-56
2021/04/15 06:06:46;;;;;;;2.90;2.70;;;;;;;23.60;17.23;96547.78;6204329;23;20502;-58
2021/04/15 06:09:12;;;;;;;4.55;3.90;;;;;;;23.60;17.38;96547.78;6204569;23;20020;-57
2021/04/15 06:11:57;;;;;;;14.32;10.82;;;;;;;23.56;17.06;96553.03;6203369;23;20013;-58
2021/04/15 06:14:46;;;;;;;87.53;55.63;;;;;;;23.53;17.39;96550.91;6204224;23;20032;-56
2021/04/15 06:17:28;;;;;;;67.40;41.97;;;;;;;23.51;17.43;96555.03;6206524;23;20013;-56
2021/04/15 06:19:59;;;;;;;51.88;35.65;;;;;;;23.51;17.45;96555.03;6179660;23;20063;-55
2021/04/15 06:22:26;;;;;;;48.25;31.50;;;;;;;23.50;17.19;96551.50;6179655;23;20020;-56
2021/04/15 06:25:00;;;;;;;49.08;29.00;;;;;;;23.47;17.18;96547.44;6178907;23;20009;-57
2021/04/15 06:27:25;;;;;;;33.90;24.88;;;;;;;23.48;17.43;96546.31;6178231;23;20012;-56
2021/04/15 06:30:01;;;;;;;35.83;22.63;;;;;;;23.48;17.75;96549.03;6203408;23;20020;-56
2021/04/15 06:32:36;;;;;;;29.65;21.55;;;;;;;23.51;17.48;96546.81;6178370;23;20013;-55
2021/04/15 06:35:03;;;;;;;27.33;19.73;;;;;;;23.53;17.49;96550.06;6203051;23;20406;-57
2021/04/15 06:37:41;;;;;;;25.17;19.55;;;;;;;23.53;17.57;96548.19;6202452;23;20063;-55
2021/04/15 06:40:21;;;;;;;28.00;18.85;;;;;;;23.56;17.49;96553.03;6202311;23;20023;-57
2021/04/15 06:43:12;;;;;;;23.75;17.63;;;;;;;23.59;17.67;96546.16;6205550;23;20020;-56
2021/04/15 06:45:50;;;;;;;25.98;17.02;;;;;;;23.63;17.62;96555.38;6203693;23;20016;-56
2021/04/15 06:48:48;;;;;;;19.45;15.07;;;;;;;23.66;17.52;96563.00;6205354;23;20039;-56
2021/04/15 06:51:19;;;;;;;19.17;15.20;;;;;;;23.72;17.70;96550.03;6166730;23;20017;-56
2021/04/15 06:54:22;;;;;;;21.10;14.38;;;;;;;23.75;17.55;96555.72;6203293;23;20008;-55
2021/04/15 06:57:19;;;;;;;17.25;13.10;;;;;;;23.80;17.48;96555.69;6204748;23;20012;-54
2021/04/15 07:00:00;;;;;;;18.95;13.38;;;;;;;23.86;17.43;96556.38;6191559;23;20016;-58
2021/04/15 07:02:34;;;;;;;15.50;12.85;;;;;;;23.92;17.41;96557.09;6205163;23;20456;-57
2021/04/15 07:05:25;;;;;;;16.95;13.27;;;;;;;23.97;17.73;96543.31;6203387;23;20075;-55
2021/04/15 07:08:00;;;;;;;15.98;13.10;;;;;;;24.02;17.30;96548.72;6187852;23;20436;-55
2021/04/15 07:10:45;;;;;;;15.38;12.82;;;;;;;24.05;17.57;96546.19;6178178;23;20051;-56
2021/04/15 07:13:13;;;;;;;16.65;13.20;;;;;;;24.11;17.20;96555.09;6205853;23;20519;-56
2021/04/15 07:15:58;;;;;;;17.40;13.52;;;;;;;24.15;17.22;96550.66;6203231;23;20016;-56
2021/04/15 07:18:37;;;;;;;16.23;12.55;;;;;;;24.18;17.19;96550.06;6204914;23;20020;-55
2021/04/15 07:21:30;;;;;;;18.10;14.55;;;;;;;24.21;17.48;96549.44;6179461;23;20475;-57
2021/04/15 07:24:30;;;;;;;15.88;12.90;;;;;;;24.23;17.32;96552.69;6192689;23;20027;-56
2021/04/15 07:27:18;;;;;;;14.30;12.05;;;;;;;24.26;17.51;96552.09;6203250;23;20027;-55
2021/04/15 07:30:16;;;;;;;13.90;11.55;;;;;;;24.28;17.63;96547.13;6205839;23;20087;-56
2021/04/15 07:33:00;;;;;;;14.85;11.88;;;;;;;24.33;17.57;96548.13;6206228;23;20008;-56
2021/04/15 07:35:39;;;;;;;13.43;10.87;;;;;;;24.36;17.66;96556.53;6204636;23;20055;-55
2021/04/15 07:38:26;;;;;;;11.68;10.38;;;;;;;24.37;17.56;96549.16;6202589;23;20012;-56
2021/04/15 07:40:58;;;;;;;12.65;10.80;;;;;;;24.40;17.60;96546.59;6204897;23;20017;-55
2021/04/15 07:43:54;;;;;;;13.88;10.55;;;;;;;24.40;17.59;96554.00;6203626;23;20090;-54
2021/04/15 07:46:26;;;;;;;12.85;9.13;;;;;;;24.40;17.44;96563.03;6204729;23;20021;-52
2021/04/15 07:48:54;;;;;;;12.30;9.57;;;;;;;24.38;17.31;96562.50;6204642;23;20008;-56
2021/04/15 07:51:38;;;;;;;12.45;8.80;;;;;;;24.36;17.39;96559.28;6204630;23;20075;-53
2021/04/15 07:54:04;;;;;;;11.63;7.90;;;;;;;24.36;17.52;96556.53;6203218;23;20012;-55
2021/04/15 07:56:51;;;;;;;14.52;9.02;;;;;;;24.35;17.61;96554.13;6203400;23;20019;-55
2021/04/15 07:59:16;;;;;;;21.67;9.70;;;;;;;24.37;18.00;96557.38;6204302;23;20019;-56
2021/04/15 08:01:45;;;;;;;14.32;8.45;;;;;;;24.37;17.92;96560.09;6205266;23;20012;-56
2021/04/15 08:04:39;;;;;;;16.63;8.60;;;;;;;24.37;18.22;96560.91;6203874;23;20061;-55
2021/04/15 08:07:23;;;;;;;13.48;8.45;;;;;;;24.37;18.34;96558.16;6202592;23;20023;-56
2021/04/15 08:10:19;;;;;;;12.87;8.33;;;;;;;24.33;18.37;96564.56;6203141;23;20075;-55
2021/04/15 08:13:22;;;;;;;11.07;7.88;;;;;;;24.32;18.04;96566.47;6204227;23;20020;-55
2021/04/15 08:16:16;;;;;;;10.88;6.97;;;;;;;24.32;18.34;96566.47;6204677;23;20040;-55
2021/04/15 08:19:22;;;;;;;9.55;6.88;;;;;;;24.30;18.10;96560.47;6203320;23;20108;-56
2021/04/15 08:22:05;;;;;;;7.22;6.32;;;;;;;24.32;18.17;96562.94;6202932;23;20090;-55
2021/04/15 08:24:31;;;;;;;10.25;6.30;;;;;;;24.32;18.10;96562.94;6201919;23;20013;-55
2021/04/15 08:27:29;;;;;;;8.85;6.38;;;;;;;24.30;17.97;96567.88;6202782;23;20024;-55
2021/04/15 08:30:10;;;;;;;11.68;6.50;;;;;;;24.31;18.22;96562.13;6204227;23;20012;-55
2021/04/15 08:32:54;;;;;;;10.27;6.25;;;;;;;24.29;18.30;96567.09;6206485;23;20040;-54
2021/04/15 08:35:47;;;;;;;8.73;5.35;;;;;;;24.28;17.94;96558.06;6205298;23;20040;-55
2021/04/15 08:38:22;;;;;;;8.50;5.25;;;;;;;24.28;18.09;96565.44;6208134;23;20079;-55
2021/04/15 08:40:47;;;;;;;8.13;5.10;;;;;;;24.30;18.26;96573.38;6205610;23;20017;-55
2021/04/15 08:43:31;;;;;;;7.18;5.30;;;;;;;24.28;18.25;96569.03;6207922;23;20016;-55
2021/04/15 08:46:03;;;;;;;7.05;5.40;;;;;;;24.27;18.17;96575.59;6206969;23;20356;-55
2021/04/15 08:48:37;;;;;;;6.63;4.70;;;;;;;24.26;17.97;96574.00;6205863;23;20047;-54
2021/04/15 08:51:40;;;;;;;6.15;4.80;;;;;;;24.25;17.94;96574.28;6205635;23;20112;-56
2021/04/15 08:54:23;;;;;;;6.93;4.95;;;;;;;24.25;17.90;96579.75;6206554;23;20022;-53
2021/04/15 08:56:56;;;;;;;6.45;4.43;;;;;;;24.23;18.23;96581.97;6206147;23;20119;-56
2021/04/15 08:59:27;;;;;;;6.35;4.57;;;;;;;24.21;18.19;96587.75;6204789;23;20016;-54
2021/04/15 09:02:07;;;;;;;6.60;4.57;;;;;;;24.19;18.27;96579.03;6180916;23;20071;-55
2021/04/15 09:04:59;;;;;;;5.68;4.53;;;;;;;24.18;18.11;96574.69;6182074;23;20793;-55
2021/04/15 09:07:44;;;;;;;6.95;5.30;;;;;;;24.19;18.27;96584.50;6204775;23;20008;-55
2021/04/15 09:10:32;;;;;;;7.97;5.07;;;;;;;24.16;17.97;96579.66;6207006;23;20017;-55
2021/04/15 09:13:35;;;;;;;6.60;4.40;;;;;;;24.16;18.19;96576.06;6190801;23;20107;-54
2021/04/15 09:16:26;;;;;;;7.03;5.22;;;;;;;24.14;17.91;96579.13;6206078;23;20016;-54
2021/04/15 09:19:29;;;;;;;5.97;4.72;;;;;;;24.12;18.17;96578.63;6203773;23;20016;-54
2021/04/15 09:22:20;;;;;;;5.70;4.35;;;;;;;24.10;18.28;96572.66;6205481;23;20023;-55
2021/04/15 09:25:18;;;;;;;5.57;4.80;;;;;;;24.10;17.90;96574.59;6204372;23;20017;-54
2021/04/15 09:27:57;;;;;;;5.00;4.45;;;;;;;24.09;18.21;96576.47;6203265;23;20009;-55
2021/04/15 09:30:48;;;;;;;5.15;4.57;;;;;;;24.08;18.19;96581.16;6205009;23;20016;-54
2021/04/15 09:33:35;;;;;;;5.72;4.13;;;;;;;24.07;17.92;96578.72;6207315;23;20016;-55
2021/04/15 09:36:26;;;;;;;6.15;4.32;;;;;;;24.06;17.87;96574.38;6182794;23;20013;-55
2021/04/15 09:39:17;;;;;;;4.88;3.47;;;;;;;24.04;18.30;96576.59;6203449;23;20012;-55
2021/04/15 09:41:48;;;;;;;4.90;3.75;;;;;;;24.03;17.87;96572.22;6205697;23;20070;-56
2021/04/15 09:44:27;;;;;;;4.60;3.92;;;;;;;24.00;18.02;96573.63;6204966;23;20016;-56
2021/04/15 09:47:05;;;;;;;4.32;3.40;;;;;;;23.98;18.40;96573.13;6204322;23;20066;-54
2021/04/15 09:49:50;;;;;;;9.60;6.18;;;;;;;23.95;18.52;96564.69;6206082;23;20019;-55
2021/04/15 09:52:30;;;;;;;13.55;10.75;;;;;;;23.98;18.49;96569.59;6206249;23;20487;-55
2021/04/15 09:55:08;;;;;;;11.35;8.10;;;;;;;23.96;18.36;96574.53;6205434;23;20013;-55
2021/04/15 09:57:38;;;;;;;8.30;7.00;;;;;;;23.94;18.29;96569.38;6204051;23;20716;-56
2021/04/15 10:00:25;;;;;;;9.63;6.88;;;;;;;23.90;18.36;96568.34;6205308;23;20236;-55
2021/04/15 10:03:07;;;;;;;7.82;6.13;;;;;;;23.90;18.21;96568.34;6205547;23;20042;-56
2021/04/15 10:06:03;;;;;;;8.75;6.32;;;;;;;23.89;18.14;96565.94;6181065;23;20047;-55
2021/04/15 10:08:50;;;;;;;5.97;5.40;;;;;;;23.87;18.48;96564.28;6199216;23;20044;-56
2021/04/15 10:11:25;;;;;;;6.53;5.40;;;;;;;23.89;18.38;96555.00;6204160;23;20437;-55
2021/04/15 10:13:56;;;;;;;7.07;5.03;;;;;;;23.88;18.45;96556.88;6205592;23;20013;-55
2021/04/15 10:16:27;;;;;;;7.07;5.13;;;;;;;23.91;18.66;96563.69;6205610;23;20369;-54
2021/04/15 10:19:20;;;;;;;6.05;4.82;;;;;;;23.91;18.16;96564.50;6203924;23;20008;-54
2021/04/15 10:21:53;;;;;;;5.95;4.60;;;;;;;23.96;18.56;96547.19;6205113;23;20009;-54
2021/04/15 10:24:30;;;;;;;5.50;4.43;;;;;;;23.98;18.55;96561.38;6204099;23;20017;-53
2021/04/15 10:27:15;;;;;;;5.65;4.18;;;;;;;24.03;18.73;96555.78;6202987;23;20024;-53
2021/04/15 10:29:49;;;;;;;;;;;;;;;24.03;18.55;96558.53;6206198;23;20072;-53
2021/04/15 10:33:00;;;;;;;5.32;3.97;;;;;;;24.05;18.39;96545.34;6205475;23;19912;-57
2021/04/15 10:35:33;;;;;;;4.35;3.70;;;;;;;24.11;18.42;96557.84;6201746;23;20432;-56
2021/04/15 10:38:23;;;;;;;5.20;3.95;;;;;;;24.16;18.52;96546.81;6205106;23;20012;-55
2021/04/15 10:41:08;;;;;;;5.68;4.07;;;;;;;24.23;18.42;96555.41;6203675;23;20044;-54
2021/04/15 10:44:11;;;;;;;5.47;4.32;;;;;;;24.27;18.39;96545.47;6203931;23;20683;-53
2021/04/15 10:46:55;;;;;;;5.05;3.05;;;;;;;24.36;18.34;96545.59;6204369;23;20025;-53
2021/04/15 10:49:36;;;;;;;4.40;4.00;;;;;;;24.41;18.80;96537.28;6203858;23;20083;-55
2021/04/15 10:52:15;;;;;;;3.88;3.47;;;;;;;24.50;18.48;96531.94;6203524;23;20009;-53
2021/04/15 10:54:41;;;;;;;4.68;3.22;;;;;;;24.57;18.39;96537.78;6204123;23;20035;-53
2021/04/15 10:57:26;;;;;;;5.88;3.08;;;;;;;24.63;18.75;96535.75;6179121;23;20024;-55
2021/04/15 10:59:52;;;;;;;4.30;2.72;;;;;;;24.70;18.69;96527.94;6203122;23;20392;-55
2021/04/15 11:02:46;;;;;;;4.10;3.10;;;;;;;24.75;18.42;96518.81;6204808;23;20016;-54
2021/04/15 11:05:30;;;;;;;4.30;3.22;;;;;;;24.80;18.82;96524.97;6204862;23;20035;-56
2021/04/15 11:08:04;;;;;;;5.40;3.47;;;;;;;24.87;18.50;96530.06;6201940;23;20020;-56
2021/04/15 11:10:30;;;;;;;5.53;3.00;;;;;;;24.94;18.61;96518.66;6204490;23;20004;-56
2021/04/15 11:13:05;;;;;;;5.22;3.10;;;;;;;25.00;18.77;96517.44;6177909;23;20066;-59
2021/04/15 11:15:38;;;;;;;;;;;;;;;25.06;18.26;96514.25;6203378;23;20012;-57
2021/04/15 11:18:13;;;;;;;3.92;3.20;;;;;;;25.11;18.27;96515.25;6202609;23;19981;-56
2021/04/15 11:20:42;;;;;;;3.17;2.92;;;;;;;25.15;18.60;96511.56;6154681;23;20454;-54
2021/04/15 11:23:13;;;;;;;3.95;2.83;;;;;;;25.18;18.51;96504.66;6178416;23;20055;-56
2021/04/15 11:25:49;;;;;;;4.40;3.00;;;;;;;25.23;18.46;96505.38;6205202;23;20106;-54
2021/04/15 11:28:19;;;;;;;3.58;3.28;;;;;;;25.29;18.60;96508.81;6178918;23;20018;-54
2021/04/15 11:30:52;;;;;;;5.18;3.05;;;;;;;25.34;18.05;96497.72;6205090;23;20031;-53
2021/04/15 11:33:41;;;;;;;3.50;3.20;;;;;;;25.39;17.86;96496.78;6204202;23;20444;-57
2021/04/15 11:36:15;;;;;;;6.70;3.33;;;;;;;25.43;18.01;96490.38;6196638;23;20094;-55
2021/04/15 11:38:43;;;;;;;3.83;3.53;;;;;;;25.48;17.93;96487.50;6178947;23;20755;-55
2021/04/15 11:41:22;;;;;;;3.67;2.92;;;;;;;25.51;18.21;96491.53;6202794;23;20063;-54
2021/04/15 11:44:07;;;;;;;4.90;3.85;;;;;;;25.56;18.43;96493.34;6202275;23;20520;-56
2021/04/15 11:46:47;;;;;;;;;;;;;;;25.59;18.01;96484.50;6205424;23;20379;-55
2021/04/15 11:49:19;;;;;;;4.18;3.40;;;;;;;25.63;17.91;96482.75;6206054;23;19912;-56
2021/04/15 11:51:54;;;;;;;4.15;3.20;;;;;;;25.65;18.27;96484.03;6204048;23;20016;-60
2021/04/15 11:54:35;;;;;;;5.47;3.38;;;;;;;25.66;18.33;96477.44;6204480;23;20012;-58
2021/04/15 11:57:19;;;;;;;5.35;3.88;;;;;;;25.68;17.86;96490.81;6202668;23;20070;-57
2021/04/15 12:00:18;;;;;;;4.93;3.50;;;;;;;25.70;18.12;96480.34;6204426;23;20090;-56
2021/04/15 12:02:55;;;;;;;4.07;3.70;;;;;;;25.71;18.11;96481.97;6193490;23;20066;-55
2021/04/15 12:05:29;;;;;;;4.47;3.40;;;;;;;25.72;18.02;96477.28;6204504;23;20016;-56
2021/04/15 12:08:02;;;;;;;4.72;3.30;;;;;;;25.74;17.68;96470.38;6202676;23;20016;-56
2021/04/15 12:10:31;;;;;;;4.07;3.03;;;;;;;25.77;17.83;96464.25;6202835;23;20373;-57
2021/04/15 12:13:00;;;;;;;6.70;3.20;;;;;;;25.80;17.82;96463.63;6177467;23;20021;-57
2021/04/15 12:15:33;;;;;;;3.95;3.10;;;;;;;25.78;17.89;96471.34;6178035;23;20005;-56